Tuesday, January 17, 2017, 8:33 PM EST

KESN, Easton / Newman Field

Location: Easton, MD, United States Lat: 38.8
Local Time: 8:33 PM EST ( 1:33 GMT) Lon: -76.067
Time Zone: US/Eastern Elev: 72 ft

Show me the last for .
Show Decoded

2017-01-17 19:58 METAR KESN 180058Z 19004KT 10SM OVC016 11/09 A2999 =
2017-01-17 18:59 METAR KESN 172359Z 19005KT 5SM BR OVC018 10/08 A2999 =
2017-01-17 17:54 METAR KESN 172254Z 16005KT 2SM BR BKN004 OVC020 09/08 A3003 =
2017-01-17 15:50 METAR KESN 172050Z 17005KT 2SM RA OVC006 09/08 A3007 =
2017-01-17 14:53 METAR KESN 171953Z 18006KT 2 1/2SM BR OVC006 09/08 A3008 =
2017-01-17 13:50 METAR KESN 171850Z 20006KT 3SM BR OVC006 09/07 A3011 =
2017-01-17 12:50 METAR KESN 171750Z 17007KT 3SM BR OVC005 09/07 A3013 =
2017-01-17 11:50 METAR KESN 171650Z 16009KT 3SM -RA BR BKN007 OVC013 07/06 A3015 =
2017-01-17 11:28 METAR KESN 171628Z 17006KT 3SM -RA BR BKN007 OVC013 07/05 A3019 =
2017-01-17 10:50 METAR KESN 171550Z 17004KT 3SM -RA BR SCT007 OVC022 07/05 A3023 =
2017-01-17 09:50 METAR KESN 171450Z 18004KT 3SM BR OVC027 07/05 A3025 =
2017-01-17 07:50 METAR KESN 171250Z 15003KT 4SM BR SCT150 05/03 A3024 =
2017-01-17 06:50 METAR KESN 171150Z 15005KT 7SM SCT150 04/03 A3024 =
2017-01-17 05:54 METAR KESN 171054Z AUTO 16004KT 7SM CLR 05/03 A3025 RMK AO2 T00460031 =
2017-01-17 05:52 METAR KESN 171052Z AUTO 16005KT 7SM CLR 05/03 A3025 RMK AO2 T00460031 =
2017-01-17 05:45 METAR KESN 171045Z 15005KT 7SM SKC 04/03 A3025 =
2017-01-17 05:31 METAR KESN 171032Z AUTO 00000KT 7SM CLR 05/03 A3027 =
2017-01-17 05:31 METAR KESN 171032Z AUTO 00000KT 7SM CLR 05/03 A3027 RMK AO2 T00470031 =
2017-01-17 05:12 METAR KESN 171012Z AUTO 00000KT 7SM CLR 05/03 A3028 RMK AO2 T00450030 =
2017-01-17 04:52 METAR KESN 170952Z AUTO 00000KT 7SM SCT031 05/03 A3029 RMK AO2 T00450030 =
2017-01-17 04:31 METAR KESN 170932Z AUTO 00000KT 10SM SCT031 SCT095 05/03 A3027 =
2017-01-17 04:31 METAR KESN 170932Z AUTO 00000KT 10SM SCT031 SCT095 05/03 A3027 RMK AO2 T00470030
                 =
2017-01-17 04:12 METAR KESN 170912Z AUTO 00000KT 10SM SCT010 SCT017 SCT029 05/03 A3028 RMK AO2
                 T00480027 =
2017-01-17 03:52 METAR KESN 170852Z AUTO 00000KT 5SM +RA SCT012 SCT022 BKN065 05/03 A3028 RMK AO2
                 T00480026 =
2017-01-17 03:32 METAR KESN 170832Z AUTO 00000KT 10SM SCT016 SCT022 05/03 A3029 RMK AO2 T00470030
                 =
2017-01-17 03:12 METAR KESN 170812Z AUTO 00000KT 10SM -RA SCT010 BKN016 05/03 A3030 RMK AO2
                 T00480026 =
2017-01-17 02:52 METAR KESN 170752Z AUTO 00000KT 10SM OVC010 05/03 A3031 RMK AO2 T00480027 =
2017-01-17 02:31 METAR KESN 170732Z AUTO 00000KT 10SM OVC012 05/03 A3030 =
2017-01-17 02:31 METAR KESN 170732Z AUTO 00000KT 10SM OVC012 05/03 A3030 RMK AO2 T00470026 =
2017-01-17 02:12 METAR KESN 170712Z AUTO 00000KT 10SM BKN014 OVC070 05/03 A3030 RMK AO2 T00470028
                 =
2017-01-17 01:52 METAR KESN 170652Z AUTO 00000KT 10SM -DZ SCT012 BKN022 BKN070 05/03 A3030 RMK
                 AO2 T00480025 =
2017-01-17 01:31 METAR KESN 170632Z AUTO 00000KT 7SM RA BKN012 BKN023 BKN070 05/03 A3030 =
2017-01-17 01:31 METAR KESN 170632Z AUTO 00000KT 7SM RA BKN012 BKN023 BKN070 05/03 A3030 RMK AO2
                 T00480026 =
2017-01-17 01:12 METAR KESN 170612Z AUTO 17003KT 10SM RA SCT009 BKN017 BKN023 05/02 A3031 RMK AO2
                 T00480024 =
2017-01-17 00:52 METAR KESN 170552Z AUTO 00000KT 7SM RA SCT009 BKN019 05/02 A3032 RMK AO2 P0001
                 T00500023 =
2017-01-17 00:31 METAR KESN 170532Z AUTO 00000KT 10SM -RA SCT007 SCT012 BKN075 05/02 A3034 =
2017-01-17 00:31 METAR KESN 170532Z AUTO 00000KT 10SM -RA SCT007 SCT012 BKN075 05/02 A3034 RMK
                 AO2 P0001 T00520018 =
2017-01-17 00:12 METAR KESN 170512Z AUTO 21003KT 10SM BKN025 BKN065 BKN080 06/00 A3034 RMK AO2
                 T00600000 =
2017-01-16 23:52 METAR KESN 170452Z AUTO 22004KT 10SM BKN027 06/00 A3035 RMK AO2 T00580000 =
2017-01-16 23:31 METAR KESN 170431Z AUTO 23004KT 10SM BKN027 06/00 A3037 =
2017-01-16 23:11 METAR KESN 170411Z AUTO 22006KT 10SM BKN027 06/00 A3037 =
2017-01-16 22:51 METAR KESN 170351Z AUTO 21005KT 10SM BKN027 06/00 A3037 RMK AO2 T00600000 =
2017-01-16 22:31 METAR KESN 170331Z AUTO 21003KT 10SM BKN027 06/00 A3038 RMK AO2 T00611001 =
2017-01-16 22:11 METAR KESN 170311Z AUTO 20003KT 10SM BKN027 06/00 A3038 RMK AO2 T00611005 =
2017-01-16 21:50 METAR KESN 170250Z 18004KT 10SM OVC027 06/M01 A3038 =
2017-01-16 20:50 METAR KESN 170150Z 20004KT 10SM OVC031 06/M02 A3040 =

Support USWX by starting your Amazon purchase here.